createdAt,value
2023-01-22T00:00:37.640Z,3.00
2023-01-22T00:03:13.280Z,3.47
2023-01-22T00:05:42.938Z,3.57
2023-01-22T00:08:12.660Z,3.67
2023-01-22T00:10:40.970Z,3.17
2023-01-22T00:13:09.941Z,2.80
2023-01-22T00:15:40.617Z,3.20
2023-01-22T00:18:13.334Z,3.00
2023-01-22T00:20:42.983Z,2.90
2023-01-22T00:23:14.783Z,2.80
2023-01-22T00:25:46.405Z,2.60
2023-01-22T00:31:42.188Z,3.20
2023-01-22T00:34:15.367Z,2.80
2023-01-22T00:36:44.947Z,2.63
2023-01-22T00:39:16.436Z,2.63
2023-01-22T00:41:44.965Z,2.80
2023-01-22T00:44:14.781Z,2.57
2023-01-22T00:46:43.057Z,2.80
2023-01-22T00:49:13.715Z,2.47
2023-01-22T00:51:42.143Z,2.73
2023-01-22T00:54:10.684Z,2.60
2023-01-22T00:56:39.060Z,2.40
2023-01-22T00:59:10.501Z,2.40
2023-01-22T01:01:39.469Z,2.63
2023-01-22T01:04:08.792Z,2.60
2023-01-22T01:06:38.370Z,2.60
2023-01-22T01:09:07.410Z,2.33
2023-01-22T01:11:35.634Z,2.10
2023-01-22T01:14:03.950Z,2.57
2023-01-22T01:16:33.802Z,2.40
2023-01-22T01:19:02.928Z,2.30
2023-01-22T01:21:32.190Z,2.40
2023-01-22T01:24:02.303Z,2.37
2023-01-22T01:26:35.847Z,3.00
2023-01-22T01:29:06.689Z,2.83
2023-01-22T01:31:35.356Z,2.87
2023-01-22T01:34:05.220Z,2.50
2023-01-22T01:36:48.204Z,2.70
2023-01-22T01:39:18.591Z,2.70
2023-01-22T01:41:49.824Z,2.70
2023-01-22T01:44:21.908Z,2.40
2023-01-22T01:46:55.076Z,2.40
2023-01-22T01:49:30.809Z,2.40
2023-01-22T01:52:03.734Z,2.50
2023-01-22T01:54:33.763Z,2.30
2023-01-22T01:57:06.370Z,2.37
2023-01-22T01:59:35.651Z,2.60
2023-01-22T02:02:06.129Z,2.57
2023-01-22T02:04:34.836Z,2.10
2023-01-22T02:07:08.359Z,2.27
2023-01-22T02:09:42.285Z,2.43
2023-01-22T02:12:11.318Z,2.60
2023-01-22T02:14:43.109Z,2.60
2023-01-22T02:17:14.021Z,2.77
2023-01-22T02:19:43.941Z,2.50
2023-01-22T02:22:20.153Z,2.40
2023-01-22T02:24:48.631Z,2.27
2023-01-22T02:27:16.874Z,2.40
2023-01-22T02:29:45.194Z,2.10
2023-01-22T02:32:14.045Z,2.77
2023-01-22T02:34:42.895Z,2.70
2023-01-22T02:37:11.565Z,2.67
2023-01-22T02:39:41.350Z,2.60
2023-01-22T02:42:10.213Z,2.80
2023-01-22T02:44:38.486Z,2.47
2023-01-22T02:47:07.280Z,2.17
2023-01-22T02:49:45.350Z,2.83
2023-01-22T02:52:13.712Z,2.50
2023-01-22T02:54:43.371Z,2.40
2023-01-22T02:57:11.771Z,2.53
2023-01-22T02:59:40.327Z,2.73
2023-01-22T03:02:12.155Z,2.17
2023-01-22T03:04:41.666Z,2.63
2023-01-22T03:07:10.108Z,2.10
2023-01-22T03:09:38.327Z,2.40
2023-01-22T03:12:08.960Z,2.23
2023-01-22T03:14:54.414Z,2.00
2023-01-22T03:17:40.037Z,2.40
2023-01-22T03:20:27.569Z,2.17
2023-01-22T03:22:55.970Z,2.87
2023-01-22T03:25:24.200Z,2.20
2023-01-22T03:28:16.715Z,2.57
2023-01-22T03:30:44.942Z,2.00
2023-01-22T03:33:13.189Z,2.57
2023-01-22T03:35:42.671Z,2.80
2023-01-22T03:38:10.918Z,2.37
2023-01-22T03:40:39.228Z,2.80
2023-01-22T03:43:09.094Z,2.27
2023-01-22T03:45:37.645Z,2.17
2023-01-22T03:48:06.359Z,2.40
2023-01-22T03:50:36.384Z,2.17
2023-01-22T03:53:05.244Z,2.63
2023-01-22T03:55:33.533Z,2.30
2023-01-22T03:58:01.930Z,2.10
2023-01-22T04:00:31.575Z,2.40
2023-01-22T04:03:02.291Z,2.50
2023-01-22T04:05:30.584Z,2.80
2023-01-22T04:07:58.857Z,2.30
2023-01-22T04:10:27.130Z,2.50
2023-01-22T04:12:55.438Z,2.87
2023-01-22T04:15:23.681Z,2.80
2023-01-22T04:17:53.393Z,2.30
2023-01-22T04:20:21.704Z,2.40
2023-01-22T04:22:50.005Z,3.13
2023-01-22T04:25:18.460Z,2.37
2023-01-22T04:27:47.214Z,2.80
2023-01-22T04:30:17.075Z,3.20
2023-01-22T04:32:45.672Z,3.30
2023-01-22T04:35:15.434Z,2.33
2023-01-22T04:37:43.804Z,2.67
2023-01-22T04:40:13.026Z,2.97
2023-01-22T04:42:41.327Z,2.70
2023-01-22T04:45:10.933Z,3.30
2023-01-22T04:47:42.528Z,2.63
2023-01-22T04:50:18.304Z,2.80
2023-01-22T04:52:46.914Z,2.63
2023-01-22T04:55:15.248Z,2.10
2023-01-22T04:57:43.506Z,2.53
2023-01-22T05:00:13.126Z,2.47
2023-01-22T05:02:41.722Z,3.33
2023-01-22T05:05:10.858Z,3.67
2023-01-22T05:07:40.494Z,2.33
2023-01-22T05:10:09.998Z,2.60
2023-01-22T05:12:42.082Z,3.00
2023-01-22T05:15:23.224Z,2.67
2023-01-22T05:17:52.347Z,2.97
2023-01-22T05:20:21.154Z,3.10
2023-01-22T05:22:50.920Z,3.43
2023-01-22T05:25:19.539Z,3.40
2023-01-22T05:27:47.777Z,2.93
2023-01-22T05:30:16.749Z,2.93
2023-01-22T05:32:45.299Z,3.27
2023-01-22T05:35:13.635Z,3.37
2023-01-22T05:37:41.957Z,2.90
2023-01-22T05:40:13.101Z,3.67
2023-01-22T05:42:41.507Z,2.77
2023-01-22T05:45:10.526Z,2.80
2023-01-22T05:47:38.751Z,2.97
2023-01-22T05:50:07.723Z,3.10
2023-01-22T05:52:40.100Z,2.90
2023-01-22T05:55:09.261Z,3.20
2023-01-22T05:57:38.940Z,2.83
2023-01-22T06:00:09.182Z,3.00
2023-01-22T06:02:37.440Z,2.47
2023-01-22T06:05:08.798Z,2.80
2023-01-22T06:07:37.193Z,3.00
2023-01-22T06:10:05.872Z,3.00
2023-01-22T06:12:34.669Z,2.97
2023-01-22T06:15:04.629Z,2.83
2023-01-22T06:17:32.825Z,2.93
2023-01-22T06:20:01.143Z,2.67
2023-01-22T06:22:29.592Z,3.10
2023-01-22T06:24:57.924Z,3.07
2023-01-22T06:27:26.244Z,3.10
2023-01-22T06:29:54.744Z,3.77
2023-01-22T06:32:24.427Z,3.03
2023-01-22T06:34:52.708Z,3.93
2023-01-22T06:37:21.891Z,3.57
2023-01-22T06:39:50.154Z,3.90
2023-01-22T06:42:18.312Z,3.50
2023-01-22T06:44:46.646Z,3.73
2023-01-22T06:47:14.891Z,3.80
2023-01-22T06:49:44.533Z,3.50
2023-01-22T06:52:13.062Z,3.57
2023-01-22T06:54:41.443Z,4.13
2023-01-22T06:58:08.397Z,3.67
2023-01-22T07:00:41.407Z,3.43
2023-01-22T07:03:10.400Z,4.10
2023-01-22T07:05:40.046Z,4.10
2023-01-22T07:08:11.095Z,4.50
2023-01-22T07:10:39.737Z,4.30
2023-01-22T07:13:10.244Z,3.83
2023-01-22T07:15:38.793Z,3.67
2023-01-22T07:18:07.852Z,3.30
2023-01-22T07:20:36.310Z,3.43
2023-01-22T07:23:06.818Z,3.63
2023-01-22T07:25:35.207Z,3.40
2023-01-22T07:28:04.287Z,3.77
2023-01-22T07:30:32.797Z,3.77
2023-01-22T07:33:01.676Z,3.80
2023-01-22T07:35:30.099Z,3.57
2023-01-22T07:38:04.869Z,3.73
2023-01-22T07:40:34.749Z,3.87
2023-01-22T07:43:08.118Z,4.10
2023-01-22T07:45:36.759Z,4.30
2023-01-22T07:48:07.853Z,4.20
2023-01-22T07:50:39.906Z,4.30
2023-01-22T07:53:12.309Z,4.13
2023-01-22T07:56:41.094Z,4.33
2023-01-22T07:59:27.892Z,3.90
2023-01-22T08:01:57.203Z,4.13
2023-01-22T08:04:26.855Z,4.23
2023-01-22T08:06:57.829Z,4.23
2023-01-22T08:09:29.359Z,4.07
2023-01-22T08:11:59.254Z,4.30
2023-01-22T08:14:32.097Z,3.33
2023-01-22T08:17:01.774Z,3.73
2023-01-22T08:29:21.219Z,3.90
2023-01-22T08:31:51.284Z,3.33
2023-01-22T08:34:22.548Z,3.20
2023-01-22T08:43:09.084Z,3.10
2023-01-22T08:45:37.532Z,3.27
2023-01-22T08:48:10.229Z,3.20
2023-01-22T08:50:38.659Z,3.67
2023-01-22T08:53:08.126Z,3.87
2023-01-22T08:55:49.546Z,3.27
2023-01-22T08:58:20.556Z,3.53
2023-01-22T09:00:53.507Z,3.40
2023-01-22T09:03:23.606Z,3.90
2023-01-22T09:05:52.273Z,3.50
2023-01-22T09:08:23.942Z,4.03
2023-01-22T09:10:55.533Z,3.40
2023-01-22T09:13:55.141Z,3.60
2023-01-22T09:22:50.827Z,2.90
2023-01-22T09:25:33.068Z,3.00
2023-01-22T09:34:38.423Z,2.83
2023-01-22T09:37:15.454Z,3.37
2023-01-22T09:39:46.491Z,2.90
2023-01-22T09:48:20.164Z,3.20
2023-01-22T09:50:54.481Z,3.53
2023-01-22T09:53:23.196Z,3.17
2023-01-22T09:55:57.238Z,3.53
2023-01-22T09:58:27.254Z,3.27
2023-01-22T10:01:13.526Z,3.20
2023-01-22T10:03:47.851Z,3.30
2023-01-22T10:06:29.601Z,3.37
2023-01-22T10:09:11.840Z,3.10
2023-01-22T10:11:54.262Z,3.33
2023-01-22T10:14:33.350Z,2.90
2023-01-22T10:17:07.696Z,3.23
2023-01-22T10:19:46.802Z,3.30
2023-01-22T10:23:17.089Z,3.10
2023-01-22T10:29:17.024Z,2.97
2023-01-22T10:31:49.359Z,3.40
2023-01-22T10:37:20.880Z,2.90
2023-01-22T10:39:50.841Z,3.20
2023-01-22T10:42:24.555Z,3.67
2023-01-22T10:45:04.198Z,3.20
2023-01-22T10:47:37.358Z,3.40
2023-01-22T10:50:23.834Z,3.17
2023-01-22T10:52:59.933Z,3.70
2023-01-22T10:55:37.250Z,3.67
2023-01-22T10:58:10.289Z,3.60
2023-01-22T11:00:52.443Z,3.67
2023-01-22T11:03:30.306Z,3.00
2023-01-22T11:06:14.173Z,3.00
2023-01-22T11:08:58.181Z,3.00
2023-01-22T11:11:40.620Z,2.83
2023-01-22T11:14:33.028Z,3.30
2023-01-22T11:24:09.191Z,2.67
2023-01-22T11:27:00.835Z,2.87
2023-01-22T11:30:09.745Z,2.90
2023-01-22T11:33:00.580Z,2.93
2023-01-22T11:35:48.984Z,2.70
2023-01-22T11:38:32.820Z,2.17
2023-01-22T11:41:16.811Z,2.33
2023-01-22T11:44:12.784Z,3.07
2023-01-22T11:46:57.167Z,3.10
2023-01-22T11:49:37.270Z,3.60
2023-01-22T11:52:20.404Z,2.97
2023-01-22T11:55:05.042Z,2.40
2023-01-22T11:57:45.959Z,3.70
2023-01-22T12:00:32.681Z,3.00
2023-01-22T12:03:25.890Z,3.40
2023-01-22T12:06:07.366Z,2.87
2023-01-22T12:09:25.194Z,2.80
2023-01-22T12:12:20.133Z,2.43
2023-01-22T12:15:08.975Z,2.70
2023-01-22T12:17:50.718Z,2.97
2023-01-22T12:20:49.347Z,2.60
2023-01-22T12:23:32.674Z,2.97
2023-01-22T12:26:18.057Z,10.03
2023-01-22T12:29:20.981Z,6.27
2023-01-22T12:35:26.854Z,9.50
2023-01-22T12:38:05.361Z,9.67
2023-01-22T12:40:53.894Z,4.27
2023-01-22T12:43:35.215Z,11.17
2023-01-22T12:46:12.708Z,3.77
2023-01-22T12:48:51.999Z,2.80
2023-01-22T12:51:30.059Z,2.93
2023-01-22T12:54:23.665Z,2.53
2023-01-22T12:56:57.194Z,2.97
2023-01-22T12:59:41.951Z,3.67
2023-01-22T13:02:37.248Z,4.97
2023-01-22T13:05:24.708Z,4.20
2023-01-22T13:08:04.154Z,8.77
2023-01-22T13:10:34.947Z,5.43
2023-01-22T13:13:12.591Z,10.53
2023-01-22T13:15:41.540Z,3.57
2023-01-22T13:18:32.998Z,11.03
2023-01-22T13:21:06.349Z,5.30
2023-01-22T13:23:42.521Z,4.20
2023-01-22T13:26:19.665Z,3.13
2023-01-22T13:28:57.440Z,3.40
2023-01-22T13:31:28.540Z,3.73
2023-01-22T13:34:12.312Z,3.40
2023-01-22T13:36:49.858Z,3.73
2023-01-22T13:39:22.635Z,4.33
2023-01-22T13:41:53.415Z,3.50
2023-01-22T13:44:25.342Z,3.47
2023-01-22T13:46:55.437Z,3.00
2023-01-22T13:49:26.085Z,3.57
2023-01-22T13:51:57.162Z,3.40
2023-01-22T13:54:37.375Z,3.63
2023-01-22T13:57:10.597Z,4.10
2023-01-22T13:59:39.013Z,3.90
2023-01-22T14:02:22.638Z,3.93
2023-01-22T14:04:52.023Z,21.13
2023-01-22T14:07:28.905Z,14.33
2023-01-22T14:10:14.248Z,17.10
2023-01-22T14:12:46.470Z,6.47
2023-01-22T14:15:16.158Z,4.37
2023-01-22T14:17:49.804Z,6.13
2023-01-22T14:20:20.268Z,4.20
2023-01-22T14:22:49.697Z,4.17
2023-01-22T14:25:34.353Z,6.77
2023-01-22T14:28:09.920Z,4.70
2023-01-22T14:30:39.700Z,5.53
2023-01-22T14:33:10.603Z,4.40
2023-01-22T14:35:38.975Z,4.47
2023-01-22T14:38:10.140Z,4.20
2023-01-22T14:40:41.396Z,3.57
2023-01-22T14:43:15.652Z,3.97
2023-01-22T14:45:50.953Z,3.73
2023-01-22T14:48:27.809Z,3.67
2023-01-22T14:51:03.072Z,3.73
2023-01-22T14:53:35.273Z,4.00
2023-01-22T14:56:08.860Z,4.47
2023-01-22T14:58:39.346Z,4.47
2023-01-22T15:01:18.588Z,4.20
2023-01-22T15:03:47.203Z,4.33
2023-01-22T15:06:18.212Z,4.73
2023-01-22T15:08:47.541Z,5.10
2023-01-22T15:11:17.895Z,5.33
2023-01-22T15:13:46.447Z,5.50
2023-01-22T15:16:15.122Z,5.63
2023-01-22T15:18:44.183Z,5.50
2023-01-22T15:21:13.588Z,5.20
2023-01-22T15:23:54.746Z,5.30
2023-01-22T15:26:28.249Z,6.60
2023-01-22T15:29:00.500Z,5.97
2023-01-22T15:31:30.282Z,6.83
2023-01-22T15:34:02.497Z,5.53
2023-01-22T15:36:35.976Z,6.07
2023-01-22T15:39:05.697Z,5.83
2023-01-22T15:41:40.400Z,5.77
2023-01-22T15:44:12.296Z,7.17
2023-01-22T15:46:44.397Z,7.47
2023-01-22T15:49:13.472Z,6.80
2023-01-22T15:51:52.750Z,6.93
2023-01-22T15:54:21.994Z,6.90
2023-01-22T15:56:52.463Z,6.33
2023-01-22T15:59:21.011Z,6.53
2023-01-22T16:02:12.884Z,8.17
2023-01-22T16:04:53.147Z,8.40
2023-01-22T16:07:25.744Z,5.93
2023-01-22T16:10:02.043Z,5.30
2023-01-22T16:12:46.587Z,5.93
2023-01-22T16:15:35.776Z,6.70
2023-01-22T16:21:57.698Z,6.80
2023-01-22T16:24:30.118Z,6.67
2023-01-22T16:27:03.253Z,6.43
2023-01-22T16:29:37.325Z,7.60
2023-01-22T16:32:10.525Z,7.47
2023-01-22T16:34:41.439Z,7.70
2023-01-22T16:37:16.280Z,7.53
2023-01-22T16:43:00.667Z,7.10
2023-01-22T16:45:30.728Z,7.87
2023-01-22T16:47:59.935Z,6.93
2023-01-22T16:50:29.558Z,7.13
2023-01-22T16:52:58.107Z,6.20
2023-01-22T16:55:26.566Z,6.53
2023-01-22T16:57:55.081Z,7.27
2023-01-22T17:00:23.801Z,5.93
2023-01-22T17:02:54.321Z,6.53
2023-01-22T17:05:59.394Z,6.63
2023-01-22T17:08:36.431Z,7.33
2023-01-22T17:11:11.457Z,8.93
2023-01-22T17:20:42.038Z,7.60
2023-01-22T17:23:16.578Z,7.70
2023-01-22T17:25:45.059Z,7.17
2023-01-22T17:28:13.837Z,9.73
2023-01-22T17:30:42.440Z,7.87
2023-01-22T17:33:15.669Z,8.00
2023-01-22T17:35:51.075Z,31.27
2023-01-22T17:38:19.786Z,17.53
2023-01-22T17:40:55.741Z,29.23
2023-01-22T17:43:25.153Z,31.90
2023-01-22T17:45:54.050Z,12.30
2023-01-22T17:48:33.147Z,21.23
2023-01-22T17:51:25.966Z,7.57
2023-01-22T17:56:51.130Z,7.57
2023-01-22T17:59:21.084Z,7.80
2023-01-22T18:01:50.308Z,7.80
2023-01-22T18:04:23.131Z,10.87
2023-01-22T18:06:53.803Z,7.97
2023-01-22T18:09:26.616Z,25.70
2023-01-22T18:11:59.336Z,30.87
2023-01-22T18:14:31.506Z,8.00
2023-01-22T18:17:10.308Z,7.07
2023-01-22T18:19:52.906Z,8.40
2023-01-22T18:22:27.653Z,10.80
2023-01-22T18:25:11.430Z,8.07
2023-01-22T18:27:45.512Z,8.27
2023-01-22T18:30:20.515Z,10.17
2023-01-22T18:32:55.711Z,7.57
2023-01-22T18:35:27.169Z,7.33
2023-01-22T18:40:54.710Z,8.17
2023-01-22T18:43:47.787Z,7.47
2023-01-22T18:46:17.291Z,7.70
2023-01-22T18:49:24.276Z,7.40
2023-01-22T18:52:04.535Z,7.20
2023-01-22T18:54:34.829Z,8.10
2023-01-22T18:57:05.197Z,8.70
2023-01-22T18:59:39.924Z,7.87
2023-01-22T19:02:16.331Z,8.40
2023-01-22T19:04:44.665Z,7.03
2023-01-22T19:07:13.061Z,7.17
2023-01-22T19:09:44.086Z,7.47
2023-01-22T19:12:19.443Z,7.97
2023-01-22T19:14:49.484Z,12.17
2023-01-22T19:17:21.106Z,8.37
2023-01-22T19:19:50.138Z,7.73
2023-01-22T19:26:23.615Z,10.70
2023-01-22T19:28:57.792Z,10.80
2023-01-22T19:31:28.368Z,7.87
2023-01-22T19:33:58.241Z,7.60
2023-01-22T19:36:31.638Z,9.63
2023-01-22T19:39:02.575Z,7.87
2023-01-22T19:41:36.171Z,7.97
2023-01-22T19:44:20.246Z,8.43
2023-01-22T19:46:56.738Z,8.97
2023-01-22T19:49:29.589Z,7.87
2023-01-22T19:51:58.454Z,8.50
2023-01-22T19:54:26.894Z,7.70
2023-01-22T19:56:56.379Z,7.93
2023-01-22T19:59:28.768Z,8.90
2023-01-22T20:01:57.877Z,7.80
2023-01-22T20:04:29.825Z,7.30
2023-01-22T20:07:22.564Z,7.93
2023-01-22T20:10:14.393Z,8.73
2023-01-22T20:12:59.101Z,8.47
2023-01-22T20:15:30.251Z,8.37
2023-01-22T20:18:10.868Z,8.50
2023-01-22T20:20:41.893Z,8.53
2023-01-22T20:23:10.870Z,8.00
2023-01-22T20:25:40.215Z,8.47
2023-01-22T20:28:13.730Z,8.60
2023-01-22T20:30:43.899Z,9.13
2023-01-22T20:33:12.911Z,7.87
2023-01-22T20:35:42.505Z,9.33
2023-01-22T20:38:12.079Z,11.70
2023-01-22T20:40:42.121Z,22.80
2023-01-22T20:43:14.266Z,21.30
2023-01-22T20:45:44.124Z,10.50
2023-01-22T20:48:12.550Z,9.43
2023-01-22T20:50:42.915Z,9.33
2023-01-22T20:53:11.330Z,9.73
2023-01-22T20:55:40.274Z,8.53
2023-01-22T20:58:11.325Z,9.17
2023-01-22T21:00:39.924Z,8.33
2023-01-22T21:03:10.680Z,8.03
2023-01-22T21:05:40.979Z,8.47
2023-01-22T21:08:10.518Z,8.30
2023-01-22T21:10:38.915Z,8.57
2023-01-22T21:13:08.678Z,8.53
2023-01-22T21:15:37.067Z,9.37
2023-01-22T21:18:05.747Z,9.20
2023-01-22T21:20:39.314Z,8.70
2023-01-22T21:23:09.844Z,8.30
2023-01-22T21:25:38.529Z,8.30
2023-01-22T21:28:09.251Z,8.70
2023-01-22T21:30:37.692Z,7.53
2023-01-22T21:33:06.380Z,8.53
2023-01-22T21:35:36.283Z,7.90
2023-01-22T21:38:04.559Z,7.53
2023-01-22T21:40:33.032Z,7.90
2023-01-22T21:43:18.488Z,7.97
2023-01-22T21:46:04.414Z,8.27
2023-01-22T21:48:32.841Z,9.07
2023-01-22T21:51:03.664Z,9.20
2023-01-22T21:53:32.157Z,8.53
2023-01-22T21:56:00.793Z,8.83
2023-01-22T21:58:29.179Z,8.63
2023-01-22T22:01:05.542Z,9.50
2023-01-22T22:03:35.365Z,9.20
2023-01-22T22:06:05.619Z,8.47
2023-01-22T22:08:35.589Z,8.77
2023-01-22T22:11:04.864Z,8.80
2023-01-22T22:13:35.238Z,9.73
2023-01-22T22:16:04.798Z,8.87
2023-01-22T22:18:33.238Z,9.50
2023-01-22T22:21:03.489Z,8.93
2023-01-22T22:23:33.919Z,8.50
2023-01-22T22:26:02.498Z,9.13
2023-01-22T22:28:31.981Z,8.70
2023-01-22T22:31:04.623Z,9.70
2023-01-22T22:33:32.957Z,8.87
2023-01-22T22:36:02.243Z,8.57
2023-01-22T22:38:32.156Z,9.73
2023-01-22T22:41:02.842Z,9.10
2023-01-22T22:43:35.195Z,8.67
2023-01-22T22:46:05.953Z,8.23
2023-01-22T22:48:34.473Z,10.00
2023-01-22T22:51:10.373Z,8.57
2023-01-22T22:53:40.227Z,8.93
2023-01-22T22:56:12.364Z,9.07
2023-01-22T22:58:41.125Z,9.30
2023-01-22T23:01:11.906Z,9.53
2023-01-22T23:03:41.332Z,9.37
2023-01-22T23:06:12.120Z,10.07
2023-01-22T23:08:43.449Z,9.03
2023-01-22T23:11:15.002Z,8.83
2023-01-22T23:13:46.755Z,9.07
2023-01-22T23:16:18.277Z,10.70
2023-01-22T23:18:51.656Z,9.80
2023-01-22T23:21:22.303Z,9.97
2023-01-22T23:23:53.681Z,9.43
2023-01-22T23:26:28.098Z,9.90
2023-01-22T23:28:58.333Z,9.37
2023-01-22T23:31:27.404Z,9.17
2023-01-22T23:33:56.362Z,8.93
2023-01-22T23:36:26.217Z,9.50
2023-01-22T23:38:56.092Z,8.73
2023-01-22T23:41:24.682Z,8.10
2023-01-22T23:43:53.246Z,9.13
2023-01-22T23:46:23.860Z,8.57
2023-01-22T23:48:52.974Z,9.10
2023-01-22T23:51:21.955Z,8.80
2023-01-22T23:53:52.423Z,9.50
2023-01-22T23:56:24.698Z,9.60
2023-01-22T23:58:55.206Z,9.10
